Time;durP1;ratioP1;P1;durP2;ratioP2;P2;SDS_P1;SDS_P2;PMS_P1;PMS_P2;Temp;Humidity;BMP_temperature;BMP_pressure;BME280_temperature;BME280_humidity;BME280_pressure;Samples;Min_cycle;Max_cycle;Signal;HPM_P1;HPM_P2
2022/07/24 00:00:22;;;;;;;2.10;2.00;;;26.70;72.60;;;;;;5077009;28;20538;-88
2022/07/24 00:02:49;;;;;;;1.60;1.50;;;26.70;72.50;;;;;;5077117;28;20487;-88
2022/07/24 00:05:16;;;;;;;2.17;1.87;;;26.70;72.60;;;;;;5077240;28;20540;-88
2022/07/24 00:07:43;;;;;;;1.90;1.80;;;26.70;72.50;;;;;;5076880;28;20465;-88
2022/07/24 00:10:12;;;;;;;1.60;1.50;;;26.70;72.60;;;;;;5076794;28;20462;-89
2022/07/24 00:12:39;;;;;;;2.17;2.07;;;26.70;72.40;;;;;;5067394;28;20442;-88
2022/07/24 00:15:07;;;;;;;2.30;2.20;;;26.70;72.50;;;;;;5057059;28;20805;-88
2022/07/24 00:17:34;;;;;;;2.10;2.00;;;26.80;72.50;;;;;;5056873;28;20513;-88
2022/07/24 00:20:01;;;;;;;1.90;1.80;;;26.70;72.40;;;;;;5056813;28;20577;-88
2022/07/24 00:22:28;;;;;;;1.80;1.70;;;26.70;72.40;;;;;;5056883;28;20446;-88
2022/07/24 00:24:55;;;;;;;2.00;1.90;;;26.80;72.50;;;;;;5056505;28;20472;-88
2022/07/24 00:27:24;;;;;;;2.17;2.00;;;26.70;72.40;;;;;;5056661;28;20531;-88
2022/07/24 00:29:51;;;;;;;2.10;2.00;;;26.70;72.30;;;;;;5056519;28;20520;-88
2022/07/24 00:32:18;;;;;;;2.07;1.87;;;26.70;72.40;;;;;;5056695;28;20487;-88
2022/07/24 00:34:46;;;;;;;1.80;1.70;;;26.70;72.40;;;;;;5056352;28;20496;-88
2022/07/24 00:37:13;;;;;;;1.93;1.83;;;26.70;72.40;;;;;;5056630;28;20448;-88
2022/07/24 00:39:40;;;;;;;1.60;1.50;;;26.70;72.40;;;;;;5056227;28;20875;-89
2022/07/24 00:42:07;;;;;;;1.97;1.87;;;26.70;72.30;;;;;;5056527;28;20488;-89
2022/07/24 00:44:36;;;;;;;1.70;1.60;;;26.70;72.30;;;;;;5056411;28;20518;-89
2022/07/24 00:47:03;;;;;;;1.90;1.80;;;26.70;73.30;;;;;;5056357;28;20469;-88
2022/07/24 00:49:30;;;;;;;2.20;2.10;;;26.70;72.40;;;;;;5056451;28;20470;-88
2022/07/24 00:51:57;;;;;;;2.00;1.90;;;26.70;72.40;;;;;;5060667;28;20488;-88
2022/07/24 00:54:24;;;;;;;2.23;2.00;;;26.70;72.50;;;;;;5075989;28;20443;-88
2022/07/24 00:56:54;;;;;;;1.80;1.70;;;26.70;72.40;;;;;;5076247;28;20484;-88
2022/07/24 00:59:21;;;;;;;1.93;1.73;;;26.70;72.40;;;;;;5075783;28;20524;-88
2022/07/24 01:01:50;;;;;;;1.60;1.50;;;26.70;72.40;;;;;;5076055;28;20473;-88
2022/07/24 01:04:18;;;;;;;1.70;1.60;;;26.70;72.40;;;;;;5075745;28;20548;-88
2022/07/24 01:06:45;;;;;;;2.17;2.07;;;26.70;72.40;;;;;;5075781;28;20469;-89
2022/07/24 01:09:12;;;;;;;1.60;1.50;;;26.70;72.30;;;;;;5068335;28;20452;-89
2022/07/24 01:11:40;;;;;;;1.63;1.53;;;26.70;72.40;;;;;;5055920;28;20469;-88
2022/07/24 01:14:07;;;;;;;1.80;1.70;;;26.70;72.40;;;;;;5055538;28;20485;-88
2022/07/24 01:16:34;;;;;;;1.90;1.80;;;26.70;72.40;;;;;;5056214;28;20448;-88
2022/07/24 01:19:02;;;;;;;2.03;1.93;;;26.70;72.40;;;;;;5055684;28;20437;-88
2022/07/24 01:21:31;;;;;;;1.80;1.70;;;26.70;72.50;;;;;;5055695;28;20468;-89
2022/07/24 01:23:58;;;;;;;1.83;1.73;;;26.70;72.40;;;;;;5055632;28;20504;-89
2022/07/24 01:26:25;;;;;;;1.77;1.67;;;26.70;72.40;;;;;;5055441;28;20486;-89
2022/07/24 01:28:53;;;;;;;1.90;1.80;;;26.70;72.40;;;;;;5066968;28;20846;-89
2022/07/24 01:31:20;;;;;;;2.20;2.07;;;26.70;72.40;;;;;;5075403;28;20861;-88
2022/07/24 01:33:47;;;;;;;1.93;1.83;;;26.70;72.40;;;;;;5075537;28;20472;-88
2022/07/24 01:36:14;;;;;;;1.80;1.70;;;26.70;72.40;;;;;;5075469;28;20465;-88
2022/07/24 01:38:42;;;;;;;1.73;1.63;;;26.70;72.40;;;;;;5075412;28;20975;-89
2022/07/24 01:41:09;;;;;;;1.80;1.70;;;26.70;72.50;;;;;;5075378;28;20912;-89
2022/07/24 01:43:36;;;;;;;2.10;2.00;;;26.70;72.50;;;;;;5075071;28;20511;-89
2022/07/24 01:46:03;;;;;;;1.93;1.83;;;26.70;72.50;;;;;;5075522;28;20441;-88
2022/07/24 01:48:30;;;;;;;2.13;2.03;;;26.70;72.50;;;;;;5074929;28;20455;-88
2022/07/24 01:50:57;;;;;;;2.10;2.00;;;26.70;72.60;;;;;;5074937;28;20476;-88
2022/07/24 01:53:24;;;;;;;1.63;1.53;;;26.70;72.50;;;;;;5071501;28;20504;-88
2022/07/24 01:55:53;;;;;;;1.73;1.63;;;26.70;72.60;;;;;;5055139;28;20533;-88
2022/07/24 01:58:21;;;;;;;2.07;1.90;;;26.70;72.60;;;;;;5054947;28;20465;-88
2022/07/24 02:00:48;;;;;;;1.90;1.80;;;26.70;72.50;;;;;;5054595;28;20532;-89
2022/07/24 02:03:15;;;;;;;1.97;1.87;;;26.70;72.60;;;;;;5055018;28;20437;-88
2022/07/24 02:05:42;;;;;;;1.70;1.60;;;26.70;72.60;;;;;;5054868;28;20867;-89
2022/07/24 02:08:09;;;;;;;1.97;1.80;;;26.70;72.70;;;;;;5054725;28;20928;-89
2022/07/24 02:10:36;;;;;;;1.80;1.70;;;26.70;72.60;;;;;;5054564;28;21015;-88
2022/07/24 02:13:04;;;;;;;1.47;1.37;;;26.70;72.60;;;;;;5054572;28;20534;-89
2022/07/24 02:15:31;;;;;;;2.10;1.90;;;26.70;72.70;;;;;;5054687;28;20525;-88
2022/07/24 02:18:01;;;;;;;1.77;1.67;;;26.70;72.80;;;;;;5054445;28;20470;-88
2022/07/24 02:20:29;;;;;;;1.63;1.53;;;26.70;72.80;;;;;;5055387;28;20521;-88
2022/07/24 02:22:57;;;;;;;1.83;1.73;;;26.70;72.80;;;;;;5074462;28;20474;-89
2022/07/24 02:25:23;;;;;;;1.50;1.40;;;26.70;72.80;;;;;;5074233;28;20444;-88
2022/07/24 02:27:50;;;;;;;1.80;1.70;;;26.70;72.70;;;;;;5074257;28;21013;-88
2022/07/24 02:30:21;;;;;;;1.60;1.47;;;26.70;72.70;;;;;;5074011;28;21060;-88
2022/07/24 02:32:48;;;;;;;1.80;1.70;;;26.70;72.70;;;;;;5074126;28;20845;-90
2022/07/24 02:35:15;;;;;;;1.60;1.50;;;26.70;72.70;;;;;;5074374;28;20480;-88
2022/07/24 02:37:44;;;;;;;1.97;1.87;;;26.70;72.70;;;;;;5073936;28;20528;-89
2022/07/24 02:40:13;;;;;;;1.60;1.50;;;26.70;72.70;;;;;;5073867;28;20516;-89
2022/07/24 02:42:40;;;;;;;1.77;1.67;;;26.70;72.80;;;;;;5074193;28;20606;-89
2022/07/24 02:45:08;;;;;;;1.60;1.50;;;26.60;72.80;;;;;;5073932;28;20850;-89
2022/07/24 02:47:46;;;;;;;1.70;1.60;;;26.70;72.70;;;;;;5073956;28;20486;-89
2022/07/24 02:50:13;;;;;;;1.70;1.60;;;26.70;72.80;;;;;;5057018;28;20875;-89
2022/07/24 02:52:40;;;;;;;1.80;1.70;;;26.60;72.80;;;;;;5053794;28;20989;-88
2022/07/24 02:55:08;;;;;;;1.90;1.80;;;26.70;72.80;;;;;;5054003;28;20500;-88
2022/07/24 02:57:35;;;;;;;1.93;1.83;;;26.70;72.70;;;;;;5053921;28;20644;-88
2022/07/24 03:00:02;;;;;;;2.13;2.03;;;26.70;72.80;;;;;;5053553;28;20486;-88
2022/07/24 03:02:29;;;;;;;2.00;1.90;;;26.70;72.80;;;;;;5053973;28;20449;-89
2022/07/24 03:04:57;;;;;;;1.80;1.70;;;26.70;72.90;;;;;;5053952;28;20446;-90
2022/07/24 03:07:24;;;;;;;1.70;1.60;;;26.70;72.90;;;;;;5054187;28;20819;-88
2022/07/24 03:09:51;;;;;;;1.87;1.77;;;26.70;72.90;;;;;;5053720;28;20472;-89
2022/07/24 03:12:18;;;;;;;1.83;1.73;;;26.60;72.80;;;;;;5053534;28;20437;-89
2022/07/24 03:14:45;;;;;;;1.67;1.57;;;26.70;72.70;;;;;;5053704;28;20864;-89
2022/07/24 03:17:12;;;;;;;1.73;1.63;;;26.70;72.50;;;;;;5053433;28;20485;-88
2022/07/24 03:19:39;;;;;;;1.70;1.60;;;26.60;72.50;;;;;;5052438;28;20446;-89
2022/07/24 03:22:07;;;;;;;1.60;1.50;;;26.60;72.50;;;;;;5053342;28;20460;-90
2022/07/24 03:24:34;;;;;;;1.40;1.30;;;26.70;72.40;;;;;;5053407;28;20442;-88
2022/07/24 03:27:01;;;;;;;1.60;1.50;;;26.60;73.20;;;;;;5053557;28;20829;-89
2022/07/24 03:29:28;;;;;;;1.70;1.60;;;26.60;72.30;;;;;;5053339;28;20449;-89
2022/07/24 03:31:55;;;;;;;1.83;1.73;;;26.60;72.30;;;;;;5053126;28;20512;-89
2022/07/24 03:34:21;;;;;;;1.80;1.70;;;26.60;72.30;;;;;;5053260;28;20981;-89
2022/07/24 03:36:48;;;;;;;1.60;1.50;;;26.60;73.10;;;;;;5053262;28;20466;-90
2022/07/24 03:39:17;;;;;;;1.63;1.53;;;26.70;72.40;;;;;;5053339;28;21021;-88
2022/07/24 03:41:44;;;;;;;1.70;1.60;;;26.60;72.30;;;;;;5053403;28;20492;-88
2022/07/24 03:44:11;;;;;;;1.87;1.77;;;26.70;72.40;;;;;;5053443;28;20868;-89
2022/07/24 03:46:37;;;;;;;1.80;1.70;;;26.60;72.30;;;;;;5053230;28;20965;-89
2022/07/24 03:49:04;;;;;;;1.90;1.80;;;26.60;72.20;;;;;;5053086;28;20537;-91
2022/07/24 03:51:31;;;;;;;1.63;1.53;;;26.60;72.30;;;;;;5053306;28;20521;-88
2022/07/24 03:53:58;;;;;;;1.73;1.63;;;26.60;72.40;;;;;;5052963;28;20532;-89
2022/07/24 03:56:26;;;;;;;1.47;1.37;;;26.60;72.40;;;;;;5053274;28;20469;-89
2022/07/24 03:58:53;;;;;;;1.80;1.70;;;26.70;72.60;;;;;;5053044;28;20507;-88
2022/07/24 04:01:20;;;;;;;2.20;2.10;;;26.60;72.50;;;;;;5052930;28;20489;-88
2022/07/24 04:03:48;;;;;;;2.10;2.00;;;26.60;72.60;;;;;;5053085;28;20867;-88
2022/07/24 04:06:14;;;;;;;1.40;1.30;;;26.60;72.70;;;;;;5052952;28;20473;-90
2022/07/24 04:08:41;;;;;;;1.60;1.50;;;26.60;72.70;;;;;;5061631;28;20529;-88
2022/07/24 04:11:09;;;;;;;1.60;1.50;;;26.60;72.50;;;;;;5072910;28;20455;-89
2022/07/24 04:13:37;;;;;;;1.53;1.43;;;26.60;72.50;;;;;;5072895;28;20473;-88
2022/07/24 04:16:04;;;;;;;1.97;1.70;;;26.60;72.60;;;;;;5073148;28;20436;-89
2022/07/24 04:18:31;;;;;;;1.90;1.80;;;26.60;72.70;;;;;;5072802;28;20441;-88
2022/07/24 04:20:58;;;;;;;1.70;1.60;;;26.60;72.60;;;;;;5072749;28;20476;-91
2022/07/24 04:23:25;;;;;;;1.70;1.60;;;26.60;72.60;;;;;;5072712;28;20440;-87
2022/07/24 04:25:52;;;;;;;1.50;1.40;;;26.60;72.70;;;;;;5073155;28;20921;-88
2022/07/24 04:28:19;;;;;;;1.83;1.73;;;26.60;72.60;;;;;;5073579;28;20528;-89
2022/07/24 04:30:47;;;;;;;1.70;1.60;;;26.60;73.40;;;;;;5074664;28;20507;-88
2022/07/24 04:33:14;;;;;;;1.63;1.53;;;26.60;72.60;;;;;;5076426;28;20472;-88
2022/07/24 04:35:41;;;;;;;1.60;1.50;;;26.60;72.50;;;;;;5076546;28;20444;-89
2022/07/24 04:38:08;;;;;;;1.80;1.70;;;26.60;72.60;;;;;;5076482;28;20433;-91
2022/07/24 04:40:35;;;;;;;1.63;1.53;;;26.60;72.60;;;;;;5076116;28;20491;-89
2022/07/24 04:43:02;;;;;;;2.03;1.93;;;26.60;72.70;;;;;;5076230;28;20484;-88
2022/07/24 04:45:28;;;;;;;1.80;1.70;;;26.60;72.70;;;;;;5076363;28;20502;-91
2022/07/24 04:47:57;;;;;;;1.70;1.60;;;26.60;72.70;;;;;;5076059;28;20480;-89
2022/07/24 04:50:24;;;;;;;1.80;1.70;;;26.60;72.80;;;;;;5076255;28;20538;-88
2022/07/24 04:52:50;;;;;;;1.70;1.60;;;26.50;72.70;;;;;;5076050;28;20472;-91
2022/07/24 04:55:17;;;;;;;1.50;1.40;;;26.60;72.80;;;;;;5075905;28;20528;-88
2022/07/24 04:57:44;;;;;;;1.70;1.60;;;26.60;72.80;;;;;;5075910;28;20534;-88
2022/07/24 05:00:14;;;;;;;1.83;1.73;;;26.60;72.70;;;;;;5076054;28;21013;-88
2022/07/24 05:02:41;;;;;;;1.93;1.70;;;26.60;72.80;;;;;;5076078;28;20476;-90
2022/07/24 05:05:09;;;;;;;1.80;1.70;;;26.60;72.80;;;;;;5075925;28;20523;-88
2022/07/24 05:07:36;;;;;;;1.70;1.60;;;26.60;72.80;;;;;;5075559;28;20473;-88
2022/07/24 05:10:04;;;;;;;1.60;1.50;;;26.60;73.80;;;;;;5075770;28;20477;-91
2022/07/24 05:12:31;;;;;;;1.87;1.77;;;26.60;72.90;;;;;;5075900;28;20448;-88
2022/07/24 05:14:58;;;;;;;1.60;1.50;;;26.60;72.90;;;;;;5075966;28;20440;-88
2022/07/24 05:17:25;;;;;;;1.50;1.40;;;26.60;72.90;;;;;;5075797;28;20445;-88
2022/07/24 05:19:51;;;;;;;1.63;1.53;;;26.60;72.80;;;;;;5075745;28;20800;-88
2022/07/24 05:22:20;;;;;;;1.80;1.70;;;26.60;72.70;;;;;;5075727;28;20906;-88
2022/07/24 05:24:47;;;;;;;1.47;1.37;;;26.60;72.80;;;;;;5075700;28;20449;-88
2022/07/24 05:27:13;;;;;;;2.03;1.93;;;26.60;72.80;;;;;;5075556;28;20476;-88
2022/07/24 05:29:41;;;;;;;1.77;1.67;;;26.60;72.70;;;;;;5075290;28;20947;-88
2022/07/24 05:32:08;;;;;;;1.60;1.50;;;26.60;72.80;;;;;;5075569;28;20495;-88
2022/07/24 05:34:34;;;;;;;2.37;1.83;;;26.60;72.80;;;;;;5075573;28;20449;-88
2022/07/24 05:37:01;;;;;;;1.67;1.57;;;26.60;72.80;;;;;;5075515;28;20448;-88
2022/07/24 05:39:30;;;;;;;1.40;1.30;;;26.60;72.80;;;;;;5075115;28;20481;-88
2022/07/24 05:41:56;;;;;;;2.07;1.97;;;26.60;72.90;;;;;;5074300;28;20502;-88
2022/07/24 05:44:23;;;;;;;1.83;1.73;;;26.60;72.80;;;;;;5075368;28;20483;-88
2022/07/24 05:46:50;;;;;;;1.90;1.80;;;26.60;72.80;;;;;;5075043;28;20539;-88
2022/07/24 05:49:17;;;;;;;1.70;1.60;;;26.60;72.80;;;;;;5075206;28;20451;-88
2022/07/24 05:51:44;;;;;;;2.00;1.90;;;26.60;72.90;;;;;;5075153;28;20996;-88
2022/07/24 05:54:11;;;;;;;1.80;1.70;;;26.60;72.90;;;;;;5075278;28;20445;-88
2022/07/24 05:56:39;;;;;;;1.90;1.80;;;26.60;73.00;;;;;;5074935;28;20465;-88
2022/07/24 05:59:06;;;;;;;1.70;1.60;;;26.60;72.90;;;;;;5074794;28;20433;-90
2022/07/24 06:01:33;;;;;;;2.13;2.00;;;26.60;73.80;;;;;;5074921;28;20959;-88
2022/07/24 06:04:00;;;;;;;2.00;1.90;;;26.60;72.90;;;;;;5074916;28;20449;-88
2022/07/24 06:06:27;;;;;;;1.80;1.70;;;26.60;72.90;;;;;;5074471;28;20576;-89
2022/07/24 06:08:53;;;;;;;2.10;2.00;;;26.60;72.90;;;;;;5074712;28;20527;-88
2022/07/24 06:11:22;;;;;;;1.83;1.73;;;26.60;73.00;;;;;;5074697;28;20951;-88
2022/07/24 06:13:50;;;;;;;1.80;1.70;;;26.60;73.00;;;;;;5074714;28;20523;-88
2022/07/24 06:16:17;;;;;;;1.70;1.60;;;26.60;72.90;;;;;;5074521;28;20483;-88
2022/07/24 06:18:44;;;;;;;2.00;1.90;;;26.60;73.00;;;;;;5074507;28;20535;-88
2022/07/24 06:21:11;;;;;;;1.80;1.70;;;26.60;73.00;;;;;;5074360;28;20493;-89
2022/07/24 06:23:38;;;;;;;1.90;1.80;;;26.60;73.00;;;;;;5074243;28;20445;-88
2022/07/24 06:26:05;;;;;;;1.70;1.60;;;26.60;73.00;;;;;;5074588;28;20524;-88
2022/07/24 06:28:32;;;;;;;2.10;2.00;;;26.60;73.10;;;;;;5074393;28;20477;-88
2022/07/24 06:31:00;;;;;;;1.80;1.70;;;26.60;73.10;;;;;;5074308;28;20464;-88
2022/07/24 06:33:27;;;;;;;1.90;1.80;;;26.60;73.00;;;;;;5074276;28;20528;-88
2022/07/24 06:35:54;;;;;;;1.80;1.70;;;26.60;73.00;;;;;;5074347;28;20441;-90
2022/07/24 06:38:21;;;;;;;1.87;1.77;;;26.60;73.10;;;;;;5074131;28;20445;-88
2022/07/24 06:40:48;;;;;;;1.60;1.50;;;26.60;73.00;;;;;;5074113;28;20990;-88
2022/07/24 06:43:15;;;;;;;2.23;2.13;;;26.60;72.90;;;;;;5073967;28;20536;-88
2022/07/24 06:45:43;;;;;;;1.67;1.57;;;26.60;72.90;;;;;;5073924;28;20449;-88
2022/07/24 06:48:11;;;;;;;2.30;2.20;;;26.60;72.90;;;;;;5073892;28;20449;-89
2022/07/24 06:50:38;;;;;;;2.13;1.93;;;26.60;72.90;;;;;;5073967;28;20475;-88
2022/07/24 06:53:05;;;;;;;1.77;1.67;;;26.60;72.90;;;;;;5073573;28;20447;-88
2022/07/24 06:55:32;;;;;;;2.07;1.97;;;26.60;72.90;;;;;;5073956;28;20524;-88
2022/07/24 06:57:59;;;;;;;1.90;1.80;;;26.60;72.90;;;;;;5073717;28;20437;-88
2022/07/24 07:00:26;;;;;;;1.83;1.73;;;26.60;72.90;;;;;;5073505;28;20499;-88
2022/07/24 07:02:53;;;;;;;2.57;2.37;;;26.60;72.80;;;;;;5057102;28;21002;-88
2022/07/24 07:05:23;;;;;;;2.43;2.33;;;26.60;72.80;;;;;;5053880;28;20469;-88
2022/07/24 07:07:50;;;;;;;1.90;1.80;;;26.60;72.80;;;;;;5053297;28;20477;-88
2022/07/24 07:10:17;;;;;;;2.13;2.03;;;26.60;72.80;;;;;;5053877;28;20556;-88
2022/07/24 07:12:44;;;;;;;1.90;1.80;;;26.60;72.90;;;;;;5053630;28;20487;-89
2022/07/24 07:15:12;;;;;;;2.20;2.10;;;26.60;72.90;;;;;;5053590;28;20449;-88
2022/07/24 07:17:39;;;;;;;1.77;1.67;;;26.60;72.90;;;;;;5053250;28;20945;-89
2022/07/24 07:20:08;;;;;;;1.70;1.60;;;26.60;73.00;;;;;;5053556;28;20511;-87
2022/07/24 07:22:36;;;;;;;1.80;1.70;;;26.60;73.00;;;;;;5068746;28;20512;-90
2022/07/24 07:25:03;;;;;;;1.97;1.87;;;26.60;72.90;;;;;;5073352;28;20476;-89
2022/07/24 07:27:30;;;;;;;1.60;1.50;;;26.60;73.00;;;;;;5073409;28;20436;-89
2022/07/24 07:29:57;;;;;;;1.80;1.70;;;26.60;73.00;;;;;;5073289;28;20488;-89
2022/07/24 07:32:24;;;;;;;2.30;2.20;;;26.60;73.00;;;;;;5070602;28;20441;-89
2022/07/24 07:34:51;;;;;;;2.83;2.10;;;26.60;73.00;;;;;;5067405;28;20473;-89
2022/07/24 07:37:18;;;;;;;1.70;1.60;;;26.60;73.00;;;;;;5073135;28;21104;-89
2022/07/24 07:39:46;;;;;;;1.80;1.70;;;26.60;73.10;;;;;;5073067;28;20472;-88
2022/07/24 07:42:13;;;;;;;1.87;1.77;;;26.60;73.20;;;;;;5059872;28;20489;-93
2022/07/24 07:44:40;;;;;;;2.30;1.53;;;26.60;73.10;;;;;;5053526;28;20944;-92
2022/07/24 07:47:07;;;;;;;1.80;1.70;;;26.60;73.10;;;;;;5053617;28;20587;-93
2022/07/24 07:49:34;;;;;;;2.40;2.30;;;26.60;73.10;;;;;;5053459;28;20473;-93
2022/07/24 07:52:01;;;;;;;2.20;2.10;;;26.60;73.10;;;;;;5053469;28;20446;-92
2022/07/24 07:54:28;;;;;;;2.00;1.90;;;26.70;73.20;;;;;;5053667;28;20434;-92
2022/07/24 07:56:56;;;;;;;2.57;1.83;;;26.60;73.00;;;;;;5053700;28;20473;-92
2022/07/24 07:59:23;;;;;;;2.10;2.00;;;26.60;73.10;;;;;;5053222;28;20469;-92
2022/07/24 08:01:50;;;;;;;2.13;2.03;;;26.70;73.10;;;;;;5053477;28;20489;-92
2022/07/24 08:04:17;;;;;;;1.97;1.80;;;26.60;73.00;;;;;;5053445;28;20450;-92
2022/07/24 08:06:44;;;;;;;2.53;1.83;;;26.60;73.90;;;;;;5039345;28;20996;-93
2022/07/24 08:09:11;;;;;;;2.10;2.00;;;26.60;73.10;;;;;;5058258;28;20852;-91
2022/07/24 08:11:38;;;;;;;2.20;2.00;;;26.60;73.10;;;;;;5057400;28;20519;-91
2022/07/24 08:14:07;;;;;;;2.73;1.90;;;26.70;73.20;;;;;;5057327;28;20545;-93
2022/07/24 08:16:33;;;;;;;2.00;1.90;;;26.70;73.30;;;;;;5056834;28;20442;-90
2022/07/24 08:19:00;;;;;;;2.20;2.10;;;26.70;73.20;;;;;;5057379;28;20532;-92
2022/07/24 08:21:28;;;;;;;2.77;2.57;;;26.60;73.20;;;;;;5057166;28;20485;-90
2022/07/24 08:23:56;;;;;;;2.10;1.90;;;26.60;73.30;;;;;;5063727;28;20445;-85
2022/07/24 08:26:24;;;;;;;2.53;2.33;;;26.60;73.70;;;;;;5078668;28;20475;-86
2022/07/24 08:28:51;;;;;;;2.60;2.37;;;26.70;73.40;;;;;;5078494;28;20931;-94
2022/07/24 08:31:19;;;;;;;2.43;2.23;;;26.70;73.30;;;;;;5077036;28;20556;-93
2022/07/24 08:33:46;;;;;;;2.70;2.50;;;26.70;73.40;;;;;;5077647;28;21014;-87
2022/07/24 08:36:13;;;;;;;2.00;1.90;;;26.70;73.50;;;;;;5076948;28;20531;-93
2022/07/24 08:38:40;;;;;;;1.97;1.87;;;26.70;74.30;;;;;;5076726;28;20469;-92
2022/07/24 08:41:07;;;;;;;2.13;2.03;;;26.70;73.40;;;;;;5077436;28;20440;-86
2022/07/24 08:43:34;;;;;;;2.80;2.60;;;26.60;73.40;;;;;;5076845;28;20467;-86
2022/07/24 08:46:01;;;;;;;2.23;2.13;;;26.70;73.60;;;;;;5076296;28;20856;-87
2022/07/24 08:48:30;;;;;;;2.17;2.07;;;26.70;73.60;;;;;;5074022;28;20445;-86
2022/07/24 08:50:59;;;;;;;3.87;1.90;;;26.70;73.60;;;;;;5075522;28;20540;-86
2022/07/24 08:53:26;;;;;;;2.33;2.13;;;26.70;73.60;;;;;;5075978;28;20445;-86
2022/07/24 08:55:53;;;;;;;2.30;2.10;;;26.70;73.60;;;;;;5076000;28;20532;-86
2022/07/24 08:58:19;;;;;;;2.10;2.00;;;26.70;73.60;;;;;;5075717;28;20535;-86
2022/07/24 09:00:46;;;;;;;1.93;1.70;;;26.70;73.60;;;;;;5074026;28;20472;-86
2022/07/24 09:03:13;;;;;;;2.10;2.00;;;26.70;73.60;;;;;;5073648;28;20488;-87
2022/07/24 09:05:55;;;;;;;2.13;2.03;;;26.70;73.50;;;;;;5073568;28;20937;-86
2022/07/24 09:08:22;;;;;;;2.10;2.00;;;26.70;73.50;;;;;;5073621;28;20536;-89
2022/07/24 09:10:58;;;;;;;2.40;2.20;;;26.70;73.60;;;;;;5073571;28;20472;-86
2022/07/24 09:13:29;;;;;;;2.13;2.03;;;26.70;73.60;;;;;;5073550;28;20444;-86
2022/07/24 09:15:56;;;;;;;2.30;2.20;;;26.70;73.60;;;;;;5074458;28;20478;-86
2022/07/24 09:18:28;;;;;;;2.10;2.00;;;26.70;73.70;;;;;;5075074;28;20439;-87
2022/07/24 09:20:57;;;;;;;2.80;2.40;;;26.70;73.60;;;;;;5075473;28;20451;-87
2022/07/24 09:23:24;;;;;;;2.13;2.03;;;26.70;73.70;;;;;;5075506;28;20507;-86
2022/07/24 09:25:53;;;;;;;2.13;2.03;;;26.70;73.70;;;;;;5075541;28;20507;-86
2022/07/24 09:28:20;;;;;;;2.07;1.97;;;26.70;73.70;;;;;;5075258;28;20499;-86
2022/07/24 09:30:48;;;;;;;2.63;2.43;;;26.70;73.70;;;;;;5075133;28;20824;-86
2022/07/24 09:33:19;;;;;;;2.57;2.37;;;26.70;73.70;;;;;;5075058;28;20495;-86
2022/07/24 09:35:48;;;;;;;2.70;2.50;;;26.70;73.70;;;;;;5075301;28;20781;-86
2022/07/24 09:38:18;;;;;;;2.47;2.23;;;26.70;73.70;;;;;;5075101;28;20433;-86
2022/07/24 09:40:46;;;;;;;2.30;2.20;;;26.70;73.70;;;;;;5075218;28;20916;-86
2022/07/24 09:43:18;;;;;;;2.70;2.50;;;26.70;73.70;;;;;;5074551;28;20491;-86
2022/07/24 09:45:57;;;;;;;2.33;2.23;;;26.70;73.70;;;;;;5075156;28;20868;-86
2022/07/24 09:48:25;;;;;;;1.80;1.70;;;26.80;73.80;;;;;;5075143;28;20524;-86
2022/07/24 09:50:53;;;;;;;2.67;2.47;;;26.70;73.70;;;;;;5074874;28;20528;-86
2022/07/24 09:53:24;;;;;;;2.50;2.30;;;26.70;73.80;;;;;;5074788;28;20476;-86
2022/07/24 09:56:06;;;;;;;2.00;1.90;;;26.70;73.80;;;;;;5074955;28;20532;-85
2022/07/24 09:58:35;;;;;;;2.50;2.17;;;26.80;73.80;;;;;;5074536;28;20472;-86
2022/07/24 10:01:03;;;;;;;1.97;1.87;;;26.70;73.80;;;;;;5074609;28;20896;-86
2022/07/24 10:03:32;;;;;;;2.60;2.40;;;26.70;73.80;;;;;;5074783;28;20575;-87
2022/07/24 10:06:02;;;;;;;2.53;2.43;;;26.70;73.80;;;;;;5074338;28;20471;-86
2022/07/24 10:08:31;;;;;;;2.77;2.57;;;26.70;73.70;;;;;;5074613;28;20524;-86
2022/07/24 10:10:58;;;;;;;2.20;2.10;;;26.80;73.90;;;;;;5074554;28;20547;-89
2022/07/24 10:13:27;;;;;;;2.30;2.20;;;26.80;73.90;;;;;;5074536;28;20479;-86
2022/07/24 10:16:17;;;;;;;2.57;2.37;;;26.80;73.90;;;;;;5074384;28;20829;-86
2022/07/24 10:18:48;;;;;;;2.53;2.40;;;26.80;73.80;;;;;;5073973;28;20433;-86
2022/07/24 10:21:17;;;;;;;2.33;2.23;;;26.80;73.90;;;;;;5074231;28;20847;-86
2022/07/24 10:24:22;;;;;;;2.30;2.10;;;26.80;73.90;;;;;;5074194;28;20560;-87
2022/07/24 10:26:51;;;;;;;2.40;2.30;;;26.80;74.70;;;;;;5074033;28;20479;-86
2022/07/24 10:29:20;;;;;;;2.63;2.43;;;26.80;74.00;;;;;;5073649;28;20441;-86
2022/07/24 10:31:50;;;;;;;2.63;2.43;;;26.80;74.20;;;;;;5073997;28;20524;-86
2022/07/24 10:34:32;;;;;;;2.73;2.53;;;26.80;74.00;;;;;;5074148;28;20864;-86
2022/07/24 10:37:07;;;;;;;2.37;2.27;;;26.80;74.00;;;;;;5074074;28;20528;-86
2022/07/24 10:39:44;;;;;;;2.23;2.13;;;26.80;73.90;;;;;;5074054;28;20527;-88
2022/07/24 10:42:11;;;;;;;2.23;2.13;;;26.80;73.90;;;;;;5074084;28;20475;-86
2022/07/24 10:44:38;;;;;;;2.87;2.67;;;26.80;74.80;;;;;;5073815;28;20520;-86
2022/07/24 10:47:08;;;;;;;2.90;2.70;;;26.80;74.00;;;;;;5074016;28;20456;-86
2022/07/24 10:49:45;;;;;;;2.50;2.30;;;26.80;74.10;;;;;;5073903;28;20469;-87
2022/07/24 10:52:23;;;;;;;2.80;2.60;;;26.80;74.00;;;;;;5073786;28;20500;-86
2022/07/24 10:55:20;;;;;;;3.00;2.80;;;26.80;74.00;;;;;;5073871;28;20437;-86
2022/07/24 10:57:54;;;;;;;2.47;2.37;;;26.80;73.90;;;;;;5073717;28;20902;-86
2022/07/24 11:00:26;;;;;;;2.80;2.60;;;26.80;74.10;;;;;;5073519;28;20547;-87
2022/07/24 11:02:57;;;;;;;2.63;2.43;;;26.80;74.10;;;;;;5073520;28;20579;-86
2022/07/24 11:05:29;;;;;;;2.60;2.50;;;26.80;74.00;;;;;;5073728;28;20444;-86
2022/07/24 11:08:29;;;;;;;2.10;2.00;;;26.80;74.10;;;;;;5073658;28;20847;-86
2022/07/24 11:10:59;;;;;;;2.70;2.50;;;26.80;74.00;;;;;;5073564;28;20448;-86
2022/07/24 11:13:49;;;;;;;2.27;2.17;;;26.80;74.10;;;;;;5073458;28;20520;-87
2022/07/24 11:16:34;;;;;;;2.40;2.30;;;26.80;74.00;;;;;;5073365;28;20443;-87
2022/07/24 11:19:28;;;;;;;2.40;2.30;;;26.80;74.10;;;;;;5073253;28;20476;-89
2022/07/24 11:22:11;;;;;;;2.30;2.20;;;26.80;74.00;;;;;;5073513;28;20437;-86
2022/07/24 11:24:43;;;;;;;2.70;2.50;;;26.80;74.10;;;;;;5073352;28;20441;-88
2022/07/24 11:27:18;;;;;;;2.77;2.57;;;26.80;74.20;;;;;;5073407;28;20437;-86
2022/07/24 11:29:52;;;;;;;2.77;2.57;;;26.80;74.20;;;;;;5073102;28;20465;-88
2022/07/24 11:32:19;;;;;;;2.60;2.40;;;26.80;74.10;;;;;;5073289;28;20524;-86
2022/07/24 11:34:47;;;;;;;2.53;2.33;;;26.80;74.10;;;;;;5073233;28;20947;-86
2022/07/24 11:37:14;;;;;;;2.33;2.23;;;26.80;74.20;;;;;;5073300;28;20433;-86
2022/07/24 11:39:45;;;;;;;2.50;2.30;;;26.80;74.10;;;;;;5072318;28;20847;-86
2022/07/24 11:42:13;;;;;;;2.40;2.30;;;26.80;74.10;;;;;;5073039;28;20443;-86
2022/07/24 11:44:42;;;;;;;2.70;2.50;;;26.80;74.10;;;;;;5073142;28;20865;-86
2022/07/24 11:47:13;;;;;;;2.40;2.30;;;26.80;74.10;;;;;;5073102;28;21030;-86
2022/07/24 11:49:43;;;;;;;2.43;2.23;;;26.90;74.20;;;;;;5073215;28;20449;-87
2022/07/24 11:52:15;;;;;;;2.90;2.70;;;26.80;74.10;;;;;;5073159;28;20444;-86
2022/07/24 11:54:42;;;;;;;2.93;2.73;;;26.80;74.90;;;;;;5073219;28;20535;-87
2022/07/24 11:57:18;;;;;;;2.70;2.57;;;26.80;74.10;;;;;;5072965;28;20514;-87
2022/07/24 11:59:47;;;;;;;2.30;2.20;;;26.90;74.10;;;;;;5073070;28;20456;-86
2022/07/24 12:02:15;;;;;;;2.90;2.70;;;26.80;74.10;;;;;;5073018;28;20443;-86
2022/07/24 12:04:43;;;;;;;2.53;2.33;;;26.80;74.00;;;;;;5072946;28;20520;-86
2022/07/24 12:07:12;;;;;;;2.20;2.10;;;26.90;74.20;;;;;;5072797;28;20562;-86
2022/07/24 12:09:47;;;;;;;2.87;2.70;;;26.80;74.00;;;;;;5072587;28;20454;-87
2022/07/24 12:12:25;;;;;;;3.03;2.83;;;26.70;73.90;;;;;;5072989;28;20528;-86
2022/07/24 12:14:55;;;;;;;2.57;2.47;;;26.90;74.20;;;;;;5072848;28;20947;-86
2022/07/24 12:17:23;;;;;;;2.40;2.30;;;26.90;74.20;;;;;;5072819;28;20436;-86
2022/07/24 12:19:57;;;;;;;2.90;2.70;;;26.80;74.10;;;;;;5072577;28;20527;-87
2022/07/24 12:22:25;;;;;;;2.43;2.33;;;26.80;74.10;;;;;;5072869;28;20440;-86
2022/07/24 12:24:53;;;;;;;2.70;2.50;;;26.90;74.20;;;;;;5072804;28;20469;-87
2022/07/24 12:27:42;;;;;;;2.77;2.57;;;26.90;74.10;;;;;;5072683;28;20465;-86
2022/07/24 12:30:24;;;;;;;2.63;2.47;;;26.90;74.00;;;;;;5072831;28;20468;-86
2022/07/24 12:32:56;;;;;;;2.50;2.40;;;26.90;74.10;;;;;;5072741;28;20465;-86
2022/07/24 12:35:24;;;;;;;2.90;2.70;;;26.90;74.20;;;;;;5072702;28;20445;-86
2022/07/24 12:37:51;;;;;;;2.97;2.77;;;26.90;74.20;;;;;;5072752;28;20440;-86
2022/07/24 12:40:31;;;;;;;2.77;2.67;;;26.90;74.20;;;;;;5072811;28;20524;-87
2022/07/24 12:43:08;;;;;;;2.60;2.40;;;26.90;74.10;;;;;;5072398;28;20512;-86
2022/07/24 12:45:35;;;;;;;2.57;2.37;;;26.90;75.00;;;;;;5072751;28;20440;-86
2022/07/24 12:48:09;;;;;;;3.13;2.93;;;26.90;74.20;;;;;;5072456;28;20437;-86
2022/07/24 12:50:36;;;;;;;2.23;2.13;;;26.90;74.20;;;;;;5072905;28;20447;-86
2022/07/24 12:53:04;;;;;;;2.33;2.23;;;26.90;74.20;;;;;;5075914;28;20535;-87
2022/07/24 12:55:31;;;;;;;2.30;2.20;;;26.90;74.20;;;;;;5076127;28;20484;-86